Time;durP1;ratioP1;P1;durP2;ratioP2;P2;SDS_P1;SDS_P2;PMS_P1;PMS_P2;Temp;Humidity;BMP_temperature;BMP_pressure;BME280_temperature;BME280_humidity;BME280_pressure;Samples;Min_cycle;Max_cycle;Signal;HPM_P1;HPM_P2
2022/04/17 00:00:17;;;;;;;3.05;2.05;;;;;;;2.82;86.25;99676.59;1713606;81;20910;-80
2022/04/17 00:02:44;;;;;;;3.47;2.10;;;;;;;2.81;86.27;99676.31;1714618;82;20903;-80
2022/04/17 00:05:11;;;;;;;3.25;2.12;;;;;;;2.81;86.26;99679.03;1714017;81;21030;-80
2022/04/17 00:07:38;;;;;;;3.12;2.30;;;;;;;2.78;86.44;99678.19;1704774;82;21009;-81
2022/04/17 00:10:06;;;;;;;2.58;1.82;;;;;;;2.76;86.76;99678.99;1727905;82;22196;-79
2022/04/17 00:12:34;;;;;;;2.85;2.22;;;;;;;2.73;86.96;99678.97;1704967;81;21112;-80
2022/04/17 00:15:03;;;;;;;2.95;2.20;;;;;;;2.72;86.83;99680.05;1725833;82;21044;-80
2022/04/17 00:17:31;;;;;;;3.27;2.33;;;;;;;2.71;86.93;99673.00;1723650;81;21031;-80
2022/04/17 00:19:57;;;;;;;2.83;2.35;;;;;;;2.70;86.95;99677.33;1727804;81;21515;-80
2022/04/17 00:22:26;;;;;;;3.42;2.08;;;;;;;2.68;87.57;99669.99;1714847;81;22214;-80
2022/04/17 00:24:54;;;;;;;3.15;2.30;;;;;;;2.71;87.84;99664.05;1715204;81;21103;-80
2022/04/17 00:27:21;;;;;;;4.78;2.50;;;;;;;2.73;87.71;99660.00;1724811;82;21485;-80
2022/04/17 00:29:48;;;;;;;4.20;2.52;;;;;;;2.73;87.46;99660.00;1734090;81;20902;-79
2022/04/17 00:32:16;;;;;;;4.90;2.85;;;;;;;2.70;87.77;99669.19;1710085;81;21576;-81
2022/04/17 00:34:44;;;;;;;2.87;2.27;;;;;;;2.67;88.33;99669.17;1726274;82;21155;-82
2022/04/17 00:37:12;;;;;;;3.15;2.50;;;;;;;2.61;88.24;99669.67;1714101;82;21505;-80
2022/04/17 00:39:40;;;;;;;3.10;2.27;;;;;;;2.62;88.33;99663.72;1728506;81;21477;-80
2022/04/17 00:42:09;;;;;;;4.05;2.98;;;;;;;2.62;88.35;99667.25;1734573;82;20946;-80
2022/04/17 00:44:37;;;;;;;4.15;2.83;;;;;;;2.61;89.09;99662.09;1713175;82;20895;-80
2022/04/17 00:47:05;;;;;;;4.53;3.10;;;;;;;2.61;89.18;99671.03;1723115;82;21868;-82
2022/04/17 00:49:32;;;;;;;3.02;2.40;;;;;;;2.60;89.28;99668.05;1725705;82;20998;-80
2022/04/17 00:51:58;;;;;;;5.65;3.10;;;;;;;2.65;89.24;99665.91;1733027;82;21434;-81
2022/04/17 00:54:27;;;;;;;4.47;3.10;;;;;;;2.64;89.02;99670.52;1732846;82;20930;-80
2022/04/17 00:56:53;;;;;;;5.72;2.95;;;;;;;2.63;89.27;99667.52;1722604;81;21532;-79
2022/04/17 00:59:21;;;;;;;4.53;3.08;;;;;;;2.62;89.61;99669.14;1712917;82;21215;-78
2022/04/17 01:01:48;;;;;;;4.08;3.20;;;;;;;2.58;89.40;99670.73;1723690;81;21486;-79
2022/04/17 01:04:16;;;;;;;4.97;3.10;;;;;;;2.56;89.49;99667.47;1721160;82;21529;-80
2022/04/17 01:06:44;;;;;;;4.37;3.22;;;;;;;2.55;89.69;99664.48;1728568;82;21548;-79
2022/04/17 01:09:11;;;;;;;4.72;2.83;;;;;;;2.54;90.13;99664.20;1714696;81;21002;-79
2022/04/17 01:11:41;;;;;;;3.90;3.12;;;;;;;2.53;90.10;99663.38;1720566;82;49563;-80
2022/04/17 01:14:09;;;;;;;3.92;2.98;;;;;;;2.52;90.22;99663.64;1721112;82;20906;-79
2022/04/17 01:16:36;;;;;;;3.27;2.25;;;;;;;2.52;90.26;99665.81;1717512;82;20970;-80
2022/04/17 01:19:11;;;;;;;5.45;3.10;;;;;;;2.55;90.40;99661.23;1717209;81;20946;-80
2022/04/17 01:21:35;;;;;;;5.60;3.40;;;;;;;2.58;90.77;99655.29;1734448;81;21099;-78
2022/04/17 01:26:57;;;;;;;3.75;3.10;;;;;;;2.63;90.41;99662.10;1719303;82;21037;-79
2022/04/17 01:29:31;;;;;;;4.33;3.25;;;;;;;2.60;90.34;99655.03;1717369;81;20942;-79
2022/04/17 01:32:11;;;;;;;3.80;3.17;;;;;;;2.57;90.50;99663.69;1704634;82;21515;-79
2022/04/17 01:34:37;;;;;;;4.03;3.22;;;;;;;2.56;91.01;99658.80;1724331;82;21020;-79
2022/04/17 01:37:05;;;;;;;5.15;3.35;;;;;;;2.57;91.11;99660.44;1723817;82;21116;-79
2022/04/17 01:39:31;;;;;;;4.92;3.67;;;;;;;2.59;91.13;99659.64;1722261;82;21041;-80
2022/04/17 01:41:59;;;;;;;4.72;3.27;;;;;;;2.58;91.10;99662.06;1718162;81;21184;-79
2022/04/17 01:44:28;;;;;;;4.10;3.25;;;;;;;2.60;91.33;99653.67;1730436;82;20946;-78
2022/04/17 01:46:57;;;;;;;4.65;3.62;;;;;;;2.61;91.68;99653.41;1722220;82;20886;-79
2022/04/17 01:49:23;;;;;;;3.87;3.47;;;;;;;2.65;91.35;99646.94;1735112;81;21214;-79
2022/04/17 01:51:52;;;;;;;4.87;3.58;;;;;;;2.65;91.25;99637.45;1714397;82;20998;-81
2022/04/17 01:54:19;;;;;;;3.50;3.02;;;;;;;2.67;91.08;99640.72;1731974;81;21503;-80
2022/04/17 01:56:48;;;;;;;5.40;3.72;;;;;;;2.68;91.38;99636.11;1706637;82;21505;-80
2022/04/17 01:59:19;;;;;;;4.08;3.00;;;;;;;2.72;91.48;99631.80;1720479;81;20894;-81
2022/04/17 02:01:48;;;;;;;3.75;3.12;;;;;;;2.73;91.11;99630.72;1712721;82;21496;-80
2022/04/17 02:04:16;;;;;;;4.15;2.98;;;;;;;2.70;90.90;99632.06;1742781;81;20970;-79
2022/04/17 02:06:43;;;;;;;5.03;3.80;;;;;;;2.69;90.93;99631.78;1722119;82;20923;-81
2022/04/17 02:09:12;;;;;;;4.45;3.65;;;;;;;2.68;91.44;99627.44;1724434;81;21489;-81
2022/04/17 02:11:39;;;;;;;3.90;3.15;;;;;;;2.70;91.35;99623.92;1721939;81;21088;-81
2022/04/17 02:14:07;;;;;;;4.95;3.15;;;;;;;2.69;91.19;99625.00;1707895;82;21272;-81
2022/04/17 02:16:36;;;;;;;6.12;3.60;;;;;;;2.70;91.25;99619.05;1712122;81;20994;-81
2022/04/17 02:19:02;;;;;;;3.62;3.02;;;;;;;2.70;91.19;99620.40;1717398;82;20993;-81
2022/04/17 02:21:31;;;;;;;4.47;3.65;;;;;;;2.71;91.69;99619.32;1722920;82;20965;-80
2022/04/17 02:24:00;;;;;;;4.33;3.47;;;;;;;2.69;91.34;99620.13;1732684;81;20963;-80
2022/04/17 02:26:27;;;;;;;4.28;3.37;;;;;;;2.66;91.29;99614.69;1713150;81;21120;-80
2022/04/17 02:28:56;;;;;;;4.08;3.17;;;;;;;2.65;91.35;99616.58;1730088;81;20925;-78
2022/04/17 02:31:23;;;;;;;3.87;3.22;;;;;;;2.65;91.62;99607.63;1728475;81;20929;-79
2022/04/17 02:33:50;;;;;;;4.60;3.25;;;;;;;2.64;91.95;99605.46;1730516;81;20946;-80
2022/04/17 02:36:18;;;;;;;4.15;3.12;;;;;;;2.68;91.98;99606.30;1724615;82;21049;-80
2022/04/17 02:38:46;;;;;;;5.37;3.40;;;;;;;2.69;91.93;99603.31;1715337;81;21127;-80
2022/04/17 02:41:12;;;;;;;3.95;3.10;;;;;;;2.69;91.75;99601.97;1722345;82;21103;-79
2022/04/17 02:43:39;;;;;;;3.37;2.77;;;;;;;2.70;92.09;99602.78;1706674;82;21006;-79
2022/04/17 02:46:07;;;;;;;4.03;3.33;;;;;;;2.71;92.74;99602.52;1738757;82;20882;-79
2022/04/17 02:48:35;;;;;;;4.08;3.15;;;;;;;2.73;92.45;99599.00;1719368;81;20944;-79
2022/04/17 02:51:03;;;;;;;4.50;3.47;;;;;;;2.76;92.33;99597.66;1724321;82;21230;-78
2022/04/17 02:53:32;;;;;;;5.35;4.00;;;;;;;2.77;92.22;99593.34;1722127;81;21089;-78
2022/04/17 02:56:01;;;;;;;5.53;3.77;;;;;;;2.76;92.78;99589.53;1723051;81;20989;-80
2022/04/17 02:58:28;;;;;;;6.50;4.45;;;;;;;2.75;92.78;99589.25;1742634;81;21411;-80
2022/04/17 03:06:26;;;;;;;4.67;3.55;;;;;;;2.75;92.28;99596.03;1731925;81;20890;-79
2022/04/17 03:08:55;;;;;;;7.15;4.00;;;;;;;2.77;92.74;99597.40;1720952;81;20939;-80
2022/04/17 03:11:23;;;;;;;5.12;3.67;;;;;;;2.77;92.44;99600.66;1719380;81;21461;-81
2022/04/17 03:13:52;;;;;;;5.22;3.40;;;;;;;2.77;92.51;99604.18;1734954;81;21556;-80
2022/04/17 03:16:19;;;;;;;5.65;3.67;;;;;;;2.79;92.48;99597.14;1726869;81;21149;-80
2022/04/17 03:18:47;;;;;;;7.08;4.00;;;;;;;2.79;92.43;99595.78;1732458;81;21073;-79
2022/04/17 03:21:13;;;;;;;4.12;3.05;;;;;;;2.80;92.94;99597.41;1728076;81;20985;-81
2022/04/17 03:23:40;;;;;;;5.25;3.65;;;;;;;2.78;92.73;99592.25;1720770;82;21045;-80
2022/04/17 03:26:07;;;;;;;4.72;3.60;;;;;;;2.76;92.59;99592.24;1727046;82;20934;-81
2022/04/17 03:28:35;;;;;;;4.97;3.40;;;;;;;2.72;92.70;99597.37;1742589;81;21025;-81
2022/04/17 03:31:04;;;;;;;4.10;3.42;;;;;;;2.73;93.76;99604.42;1710849;81;20899;-79
2022/04/17 03:33:31;;;;;;;4.17;3.10;;;;;;;2.72;93.52;99600.62;1700529;81;21018;-79
2022/04/17 03:35:59;;;;;;;5.28;3.50;;;;;;;2.70;93.72;99608.20;1715459;81;21050;-79
2022/04/17 03:38:25;;;;;;;3.12;2.50;;;;;;;2.59;94.48;99613.56;1731078;81;21163;-79
2022/04/17 03:40:52;;;;;;;4.40;2.90;;;;;;;2.59;94.48;99613.56;1714683;81;21147;-78
2022/04/17 03:43:22;;;;;;;4.75;2.62;;;;;;;2.56;95.40;99619.50;1721711;82;20897;-78
2022/04/17 03:45:49;;;;;;;4.17;2.67;;;;;;;2.53;95.52;99625.44;1716128;81;20922;-78
2022/04/17 03:48:18;;;;;;;2.80;2.37;;;;;;;2.49;95.65;99623.52;1722029;82;20950;-80
2022/04/17 03:50:45;;;;;;;3.05;2.30;;;;;;;2.51;95.86;99626.78;1731309;82;20898;-79
2022/04/17 03:53:12;;;;;;;3.80;2.17;;;;;;;2.54;95.89;99623.55;1714399;82;21154;-79
2022/04/17 03:55:40;;;;;;;2.70;2.00;;;;;;;2.57;95.90;99628.45;1699636;82;20946;-79
2022/04/17 03:58:08;;;;;;;3.80;2.30;;;;;;;2.59;95.71;99621.69;1704979;81;21105;-80
2022/04/17 04:00:35;;;;;;;3.55;2.30;;;;;;;2.60;95.50;99623.33;1722646;82;21136;-81
2022/04/17 04:03:04;;;;;;;3.85;2.70;;;;;;;2.60;95.23;99632.00;1722084;82;20957;-82
2022/04/17 04:05:31;;;;;;;4.33;2.12;;;;;;;2.62;95.40;99637.43;1733678;81;21228;-82
2022/04/17 04:07:58;;;;;;;3.15;2.40;;;;;;;2.66;95.68;99632.30;1715889;82;20939;-84
2022/04/17 04:10:25;;;;;;;3.00;1.82;;;;;;;2.72;95.78;99639.93;1728721;81;20983;-83
2022/04/17 04:12:52;;;;;;;2.83;2.27;;;;;;;2.77;94.71;99646.20;1735394;80;21046;-83
2022/04/17 04:15:18;;;;;;;1.85;1.67;;;;;;;2.80;94.96;99636.19;1732109;81;21073;-83
2022/04/17 04:17:45;;;;;;;1.85;1.75;;;;;;;2.90;95.81;99642.17;1716829;81;21049;-82
2022/04/17 04:20:13;;;;;;;2.47;1.75;;;;;;;3.03;95.77;99636.82;1731956;82;20898;-82
2022/04/17 04:22:41;;;;;;;2.72;2.00;;;;;;;3.11;95.31;99639.03;1730561;82;21601;-80
2022/04/17 04:25:09;;;;;;;3.47;2.35;;;;;;;3.18;94.69;99639.06;1694409;83;21015;-83
2022/04/17 04:30:23;;;;;;;4.05;2.45;;;;;;;3.10;93.84;99639.57;1691125;83;21166;-81
2022/04/17 04:32:56;;;;;;;3.05;2.08;;;;;;;3.05;93.84;99638.19;1703468;83;21507;-82
2022/04/17 04:35:26;;;;;;;4.92;2.30;;;;;;;2.97;93.65;99636.80;1706276;82;20994;-83
2022/04/17 04:37:52;;;;;;;3.37;2.00;;;;;;;2.91;94.06;99635.14;1730709;81;20990;-83
2022/04/17 04:40:19;;;;;;;3.08;2.02;;;;;;;2.90;94.25;99645.70;1718113;82;21623;-82
2022/04/17 04:42:46;;;;;;;3.92;2.10;;;;;;;2.95;94.29;99648.44;1720862;81;21529;-83
2022/04/17 04:47:58;;;;;;;4.65;1.60;;;;;;;3.17;93.92;99648.28;1713946;82;21525;-82
2022/04/17 04:50:25;;;;;;;2.52;1.60;;;;;;;3.24;92.66;99651.57;1719900;82;20947;-81
2022/04/17 04:52:53;;;;;;;3.17;1.87;;;;;;;3.25;92.09;99648.31;1744775;81;20942;-80
2022/04/17 04:55:20;;;;;;;3.75;1.60;;;;;;;3.23;91.98;99640.45;1740336;81;21152;-81
2022/04/17 04:57:46;;;;;;;1.82;1.37;;;;;;;3.23;92.54;99645.05;1693889;82;20955;-79
2022/04/17 05:00:15;;;;;;;3.02;1.90;;;;;;;3.22;91.78;99648.84;1720267;83;20931;-80
2022/04/17 05:02:42;;;;;;;2.27;1.85;;;;;;;3.16;91.65;99656.14;1722108;83;20976;-79
2022/04/17 05:05:10;;;;;;;2.45;1.65;;;;;;;3.13;91.97;99655.31;1733819;82;21485;-81
2022/04/17 05:07:38;;;;;;;2.35;1.72;;;;;;;3.08;91.95;99657.19;1732899;81;21275;-81
2022/04/17 05:10:08;;;;;;;1.95;1.47;;;;;;;3.03;92.22;99653.91;1706532;82;21035;-75
2022/04/17 05:12:37;;;;;;;2.27;1.67;;;;;;;3.01;92.54;99645.22;1717294;82;21021;-72
2022/04/17 05:15:09;;;;;;;2.50;2.00;;;;;;;2.97;92.67;99648.18;1727540;82;20957;-73
2022/04/17 05:17:37;;;;;;;3.02;1.92;;;;;;;2.95;93.01;99655.22;1721967;81;21050;-72
2022/04/17 05:20:08;;;;;;;4.97;3.33;;;;;;;2.98;94.09;99652.53;1721568;82;20922;-73
2022/04/17 05:22:34;;;;;;;4.62;2.37;;;;;;;3.05;95.17;99650.39;1721870;81;20878;-73
2022/04/17 05:25:01;;;;;;;5.10;2.55;;;;;;;3.15;94.86;99655.05;1731646;81;21011;-71
2022/04/17 05:27:29;;;;;;;4.22;2.27;;;;;;;3.14;93.78;99651.52;1733848;81;21026;-75
2022/04/17 05:29:56;;;;;;;2.70;1.90;;;;;;;3.09;93.71;99650.69;1737790;81;21501;-75
2022/04/17 05:32:23;;;;;;;6.08;2.30;;;;;;;3.10;93.81;99655.03;1740841;81;21201;-73
2022/04/17 05:34:51;;;;;;;4.30;2.12;;;;;;;3.11;93.95;99652.05;1721961;82;20955;-70
2022/04/17 05:37:18;;;;;;;3.08;2.17;;;;;;;3.14;94.22;99654.23;1721691;80;21033;-70
2022/04/17 05:39:46;;;;;;;3.20;2.05;;;;;;;3.18;94.11;99655.34;1728981;81;20908;-70
2022/04/17 05:42:16;;;;;;;3.20;2.10;;;;;;;3.18;93.72;99652.63;1746015;81;20983;-70
2022/04/17 05:44:46;;;;;;;4.65;1.98;;;;;;;3.18;93.60;99644.48;1710017;81;21332;-70
2022/04/17 05:47:13;;;;;;;3.95;2.17;;;;;;;3.18;93.57;99651.27;1714748;81;20961;-70
2022/04/17 05:49:41;;;;;;;7.35;2.25;;;;;;;3.21;93.80;99643.96;1653917;83;20945;-70
2022/04/17 05:52:08;;;;;;;2.65;1.82;;;;;;;3.27;93.75;99641.55;1708541;81;20938;-70
2022/04/17 05:54:35;;;;;;;2.02;1.65;;;;;;;3.31;93.05;99643.19;1721349;80;21114;-70
2022/04/17 05:57:04;;;;;;;3.35;2.02;;;;;;;3.27;93.02;99646.97;1741476;80;21016;-70
2022/04/17 05:59:32;;;;;;;3.50;1.87;;;;;;;3.25;93.16;99649.13;1712713;81;21505;-70
2022/04/17 06:02:01;;;;;;;3.55;2.40;;;;;;;3.20;93.65;99649.66;1740077;81;21054;-69
2022/04/17 06:04:29;;;;;;;5.03;2.80;;;;;;;3.18;93.88;99654.53;1693037;82;21017;-70
2022/04/17 06:06:56;;;;;;;4.42;3.20;;;;;;;3.10;94.22;99654.48;1736921;80;20941;-72
2022/04/17 06:09:23;;;;;;;7.08;4.00;;;;;;;3.05;94.77;99652.29;1747646;81;21764;-79
2022/04/17 06:11:50;;;;;;;7.40;4.08;;;;;;;3.07;95.56;99656.91;1712267;81;21016;-79
2022/04/17 06:14:19;;;;;;;4.50;3.00;;;;;;;3.11;95.79;99652.59;1736706;81;21448;-82
2022/04/17 06:16:47;;;;;;;7.42;3.58;;;;;;;3.14;95.57;99652.06;1718165;81;20985;-82
2022/04/17 06:19:17;;;;;;;5.90;3.90;;;;;;;3.13;95.16;99650.43;1726132;81;21026;-83
2022/04/17 06:21:45;;;;;;;6.87;4.05;;;;;;;3.15;95.34;99657.77;1703739;81;20945;-84
2022/04/17 06:24:12;;;;;;;6.42;3.50;;;;;;;3.16;95.38;99657.50;1751439;81;20954;-75
2022/04/17 06:26:40;;;;;;;4.70;2.65;;;;;;;3.20;95.20;99655.89;1743885;81;20922;-72
2022/04/17 06:29:08;;;;;;;6.75;3.37;;;;;;;3.28;94.70;99657.28;1712961;81;20948;-82
2022/04/17 06:31:43;;;;;;;3.47;2.62;;;;;;;3.35;95.06;99659.75;1737814;81;21123;-87
2022/04/17 06:34:05;;;;;;;12.37;5.40;;;;;;;3.44;94.84;99657.63;1751748;81;22019;-80
2022/04/17 06:36:32;;;;;;;14.45;7.95;;;;;;;3.50;94.56;99656.53;1737878;81;21512;-83
2022/04/17 06:39:00;;;;;;;11.40;5.85;;;;;;;3.53;93.58;99659.25;1710095;81;21698;-80
2022/04/17 06:41:28;;;;;;;7.95;3.52;;;;;;;3.55;93.86;99663.88;1707704;82;20944;-77
2022/04/17 06:43:56;;;;;;;3.58;2.90;;;;;;;3.60;92.75;99663.89;1725364;81;20992;-72
2022/04/17 06:46:23;;;;;;;4.03;2.62;;;;;;;3.58;92.90;99664.70;1740191;82;21127;-72
2022/04/17 06:48:49;;;;;;;4.10;2.60;;;;;;;3.53;92.52;99673.64;1741481;81;20941;-73
2022/04/17 06:51:19;;;;;;;2.77;2.40;;;;;;;3.49;92.54;99670.36;1734661;81;20900;-72
2022/04/17 06:53:46;;;;;;;4.35;3.05;;;;;;;3.47;93.02;99669.27;1733443;81;20861;-73
2022/04/17 06:56:16;;;;;;;3.83;2.45;;;;;;;3.45;92.66;99680.15;1729247;82;20844;-78
2022/04/17 06:58:42;;;;;;;3.30;2.65;;;;;;;3.42;93.90;99679.32;1729121;81;21163;-68
2022/04/17 07:01:10;;;;;;;3.27;2.42;;;;;;;3.41;93.95;99683.12;1729042;82;20992;-74
2022/04/17 07:03:38;;;;;;;2.70;2.22;;;;;;;3.48;94.36;99687.19;1730302;81;21447;-73
2022/04/17 07:06:04;;;;;;;3.70;2.22;;;;;;;3.60;93.96;99685.61;1732071;81;20912;-74
2022/04/17 07:08:32;;;;;;;2.47;2.17;;;;;;;3.67;93.75;99678.03;1736295;81;20945;-72
2022/04/17 07:11:00;;;;;;;3.33;2.12;;;;;;;3.78;93.16;99683.77;1728171;81;20850;-69
2022/04/17 07:13:27;;;;;;;2.58;1.80;;;;;;;3.84;92.75;99688.13;1730042;82;20932;-69
2022/04/17 07:15:56;;;;;;;3.22;2.08;;;;;;;3.91;92.18;99682.44;1745471;81;20940;-75
2022/04/17 07:18:24;;;;;;;2.87;2.08;;;;;;;3.87;91.43;99680.80;1746275;81;20948;-84
2022/04/17 07:20:51;;;;;;;4.00;1.50;;;;;;;3.88;91.98;99681.61;1730283;82;21090;-81
2022/04/17 07:23:19;;;;;;;2.35;1.87;;;;;;;3.95;92.38;99686.25;1727998;82;20999;-75
2022/04/17 07:25:47;;;;;;;2.47;1.50;;;;;;;4.01;92.46;99680.28;1741168;81;20853;-67
2022/04/17 07:28:15;;;;;;;2.05;1.60;;;;;;;4.09;91.94;99670.22;1706188;82;20945;-68
2022/04/17 07:30:41;;;;;;;2.52;1.80;;;;;;;4.15;91.10;99666.41;1742655;81;21056;-69
2022/04/17 07:33:09;;;;;;;4.17;2.55;;;;;;;4.21;90.19;99666.70;1726135;81;20969;-68
2022/04/17 07:35:38;;;;;;;3.80;2.52;;;;;;;4.28;90.20;99672.67;1721867;82;21351;-69
2022/04/17 07:38:05;;;;;;;4.08;2.50;;;;;;;4.40;90.22;99666.44;1708453;82;20995;-63
2022/04/17 07:40:34;;;;;;;2.30;1.90;;;;;;;4.56;89.61;99671.32;1716588;82;21586;-63
2022/04/17 07:43:04;;;;;;;3.77;1.70;;;;;;;4.70;88.87;99672.91;1733614;82;21098;-63
2022/04/17 07:45:32;;;;;;;2.00;1.50;;;;;;;4.81;85.94;99666.37;1722464;81;21000;-63
2022/04/17 07:47:58;;;;;;;1.92;1.62;;;;;;;4.82;85.75;99662.56;1717986;81;21107;-63
2022/04/17 07:50:29;;;;;;;2.37;1.87;;;;;;;4.82;85.75;99662.56;1733145;82;20940;-63
2022/04/17 07:52:57;;;;;;;;;;;;;;;4.86;86.06;99664.45;1694707;83;20969;-64
2022/04/17 07:55:24;;;;;;;3.77;1.90;;;;;;;4.92;84.89;99662.54;1701377;83;20701;-63
2022/04/17 08:00:43;;;;;;;2.40;1.47;;;;;;;5.00;84.07;99656.53;1692098;83;21278;-63
2022/04/17 08:03:10;;;;;;;2.55;1.47;;;;;;;5.04;82.96;99649.45;1704421;83;20953;-63
2022/04/17 08:05:38;;;;;;;2.25;1.12;;;;;;;4.96;83.62;99666.34;1675877;83;20970;-63
2022/04/17 08:08:08;;;;;;;1.70;1.17;;;;;;;4.96;83.62;99666.34;1709325;83;20902;-62
2022/04/17 08:10:37;;;;;;;1.57;1.20;;;;;;;4.81;84.11;99664.47;1699964;83;21593;-61
2022/04/17 08:13:06;;;;;;;2.42;1.90;;;;;;;4.81;84.11;99664.47;1706488;82;21040;-70
2022/04/17 08:15:34;;;;;;;2.77;1.60;;;;;;;4.97;84.64;99663.34;1704787;83;21006;-70
2022/04/17 08:18:02;;;;;;;2.17;1.70;;;;;;;5.55;85.37;99647.32;1724051;81;20937;-71
2022/04/17 08:20:31;;;;;;;3.47;1.55;;;;;;;6.21;80.37;99645.55;1727794;82;21068;-68
2022/04/17 08:22:58;;;;;;;4.42;2.12;;;;;;;6.50;78.06;99651.56;1728235;82;20933;-69
2022/04/17 08:25:27;;;;;;;5.42;2.60;;;;;;;6.33;78.18;99661.55;1733535;80;20905;-71
2022/04/17 08:27:55;;;;;;;3.60;2.58;;;;;;;5.85;77.12;99657.20;1738147;81;21008;-70
2022/04/17 08:30:26;;;;;;;6.20;3.90;;;;;;;5.36;78.65;99657.75;1735763;82;20967;-68
2022/04/17 08:32:54;;;;;;;5.47;2.98;;;;;;;4.76;82.69;99663.66;1734578;81;21656;-69
2022/04/17 08:35:22;;;;;;;5.62;3.08;;;;;;;4.76;82.69;99663.66;1714700;82;21033;-70
2022/04/17 08:37:50;;;;;;;4.80;2.60;;;;;;;4.78;83.98;99660.94;1704629;81;21161;-71
2022/04/17 08:40:17;;;;;;;3.37;1.87;;;;;;;4.94;85.00;99653.02;1695751;83;21026;-70
2022/04/17 08:42:44;;;;;;;2.10;1.80;;;;;;;5.25;84.09;99646.09;1718210;83;20988;-70
2022/04/17 08:45:13;;;;;;;3.65;2.12;;;;;;;5.70;83.33;99634.72;1707397;83;21010;-65
2022/04/17 08:47:42;;;;;;;2.70;1.60;;;;;;;6.14;83.92;99645.05;1704545;83;20992;-70
2022/04/17 08:50:16;;;;;;;2.05;1.00;;;;;;;6.36;78.07;99650.59;1700500;83;21179;-64
2022/04/17 08:52:50;;;;;;;1.35;0.98;;;;;;;6.24;77.40;99663.25;1704334;83;20939;-69
2022/04/17 08:55:16;;;;;;;1.05;0.95;;;;;;;5.95;76.60;99669.44;1691137;83;20917;-71
2022/04/17 08:57:43;;;;;;;1.65;0.90;;;;;;;5.63;77.35;99670.43;1679153;83;21553;-70
2022/04/17 09:00:16;;;;;;;1.10;0.95;;;;;;;5.38;77.88;99669.99;1713485;83;20937;-70
2022/04/17 09:02:42;;;;;;;1.12;0.68;;;;;;;5.17;78.10;99670.64;1731454;81;21727;-70
2022/04/17 09:05:12;;;;;;;1.57;0.90;;;;;;;5.05;79.30;99676.12;1714347;81;20973;-70
2022/04/17 09:07:45;;;;;;;0.90;0.82;;;;;;;5.02;80.01;99675.30;1726055;82;20966;-70
2022/04/17 09:10:13;;;;;;;1.25;0.90;;;;;;;5.05;80.50;99672.03;1735415;81;20999;-70
2022/04/17 09:12:44;;;;;;;1.20;1.07;;;;;;;5.17;79.43;99669.28;1677464;81;20941;-69
2022/04/17 09:15:13;;;;;;;1.17;1.07;;;;;;;5.29;80.23;99665.67;1687373;82;20945;-73
2022/04/17 09:17:39;;;;;;;2.05;1.30;;;;;;;5.46;79.73;99667.23;1690677;84;21110;-68
2022/04/17 09:20:09;;;;;;;1.55;1.30;;;;;;;5.60;79.11;99658.19;1711857;81;20995;-66
2022/04/17 09:22:52;;;;;;;1.85;1.55;;;;;;;5.74;79.38;99656.21;1673580;81;21023;-65
2022/04/17 09:25:22;;;;;;;2.05;1.15;;;;;;;5.83;78.86;99654.50;1740402;81;20977;-65
2022/04/17 09:28:05;;;;;;;2.10;1.50;;;;;;;6.02;79.89;99654.13;1707198;81;21227;-66
2022/04/17 09:30:39;;;;;;;1.20;1.07;;;;;;;6.22;77.41;99653.17;1703598;82;21060;-65
2022/04/17 09:33:10;;;;;;;1.40;1.02;;;;;;;6.27;71.33;99643.59;1711934;81;21564;-65
2022/04/17 09:35:37;;;;;;;0.85;0.70;;;;;;;6.30;71.78;99645.75;1703880;83;21559;-66
2022/04/17 09:38:07;;;;;;;1.47;0.93;;;;;;;6.49;71.12;99639.84;1705478;82;21392;-66
2022/04/17 09:40:36;;;;;;;3.37;1.20;;;;;;;6.69;67.04;99636.66;1706795;83;21089;-65
2022/04/17 09:43:18;;;;;;;0.85;0.82;;;;;;;6.90;68.22;99627.98;1692724;83;21018;-65
2022/04/17 09:46:02;;;;;;;1.42;1.10;;;;;;;7.45;70.78;99635.23;1691122;83;21614;-66
2022/04/17 09:48:35;;;;;;;3.75;1.15;;;;;;;8.12;69.64;99629.03;1698777;83;20972;-65
2022/04/17 09:51:11;;;;;;;;;;;;;;;8.55;65.74;99626.99;1711647;82;20997;-65
2022/04/17 09:53:38;;;;;;;1.37;0.90;;;;;;;8.80;63.05;99621.59;1687670;82;21897;-65
2022/04/17 09:56:10;;;;;;;1.15;1.05;;;;;;;8.99;60.92;99631.09;1730819;81;20936;-66
2022/04/17 09:58:48;;;;;;;1.33;0.90;;;;;;;8.93;60.69;99624.09;1729152;82;20877;-66
2022/04/17 10:01:16;;;;;;;2.02;0.90;;;;;;;8.68;60.61;99632.21;1725433;82;21462;-65
2022/04/17 10:03:48;;;;;;;1.15;0.78;;;;;;;8.13;59.78;99631.21;1730593;81;21058;-65
2022/04/17 10:06:16;;;;;;;1.15;0.75;;;;;;;7.80;61.43;99618.88;1719164;82;20884;-68
2022/04/17 10:08:44;;;;;;;1.35;0.98;;;;;;;8.00;63.78;99630.63;1693761;82;21069;-65
2022/04/17 10:11:15;;;;;;;1.82;1.00;;;;;;;8.41;62.26;99624.77;1730310;82;21007;-70
2022/04/17 10:13:42;;;;;;;1.15;0.78;;;;;;;8.64;62.87;99626.30;1736314;81;20939;-69
2022/04/17 10:16:12;;;;;;;1.05;0.80;;;;;;;8.70;60.91;99612.75;1747966;81;20980;-66
2022/04/17 10:18:40;;;;;;;0.60;0.60;;;;;;;8.82;60.82;99619.92;1719216;81;21817;-64
2022/04/17 10:21:07;;;;;;;0.70;0.55;;;;;;;8.83;55.45;99621.55;1727832;82;21635;-64
2022/04/17 10:23:42;;;;;;;1.20;0.60;;;;;;;9.07;58.26;99611.78;1722593;81;21059;-64
2022/04/17 10:26:05;;;;;;;2.92;0.60;;;;;;;9.56;56.59;99619.23;1737806;81;20958;-66
2022/04/17 10:28:39;;;;;;;1.62;0.80;;;;;;;9.84;55.40;99615.85;1726571;82;20960;-68
2022/04/17 10:31:19;;;;;;;1.00;0.60;;;;;;;9.82;51.96;99599.71;1684808;82;21267;-69
2022/04/17 10:34:16;;;;;;;1.65;0.90;;;;;;;9.65;53.95;99597.39;1723299;82;21536;-69
2022/04/17 10:37:07;;;;;;;0.60;0.50;;;;;;;9.66;54.43;99604.50;1721178;81;20944;-70
2022/04/17 10:39:44;;;;;;;1.20;0.88;;;;;;;9.94;56.80;99608.20;1732575;81;20975;-65
2022/04/17 10:42:11;;;;;;;1.02;0.80;;;;;;;10.08;50.96;99601.30;1724346;82;20948;-65
2022/04/17 10:44:41;;;;;;;1.22;0.90;;;;;;;10.10;50.67;99596.31;1716497;82;21202;-65
2022/04/17 10:47:20;;;;;;;1.12;0.90;;;;;;;10.18;52.52;99589.27;1732000;81;21491;-64
2022/04/17 10:49:54;;;;;;;1.25;1.02;;;;;;;10.25;50.92;99595.16;1732468;81;20946;-74
2022/04/17 10:52:31;;;;;;;1.45;1.02;;;;;;;10.11;51.46;99596.56;1707355;81;21014;-75
2022/04/17 10:55:11;;;;;;;2.12;0.90;;;;;;;9.93;52.79;99596.98;1730807;81;20972;-75
2022/04/17 10:57:44;;;;;;;1.65;0.90;;;;;;;9.56;54.42;99604.16;1712095;82;21106;-63
2022/04/17 11:00:37;;;;;;;1.32;0.80;;;;;;;9.16;56.47;99614.88;1734987;81;20946;-67
2022/04/17 11:03:11;;;;;;;1.10;0.78;;;;;;;8.77;59.03;99604.96;1719931;81;20932;-65
2022/04/17 11:08:25;;;;;;;2.45;1.02;;;;;;;8.24;61.71;99608.06;1711660;81;21188;-65
2022/04/17 11:10:56;;;;;;;1.67;1.02;;;;;;;8.20;62.11;99607.04;1737693;80;21165;-65
2022/04/17 11:13:28;;;;;;;1.80;1.00;;;;;;;8.35;63.02;99602.72;1720553;80;21575;-65
2022/04/17 11:15:59;;;;;;;1.50;0.95;;;;;;;8.71;63.11;99602.06;1727119;81;21588;-64
2022/04/17 11:18:28;;;;;;;2.37;1.05;;;;;;;9.22;62.82;99590.37;1722418;81;21132;-65
2022/04/17 11:20:55;;;;;;;1.20;0.90;;;;;;;9.76;60.42;99573.56;1747886;81;21470;-69
2022/04/17 11:24:00;;;;;;;1.82;1.05;;;;;;;10.35;54.17;99568.03;1735417;81;21248;-66
2022/04/17 11:26:59;;;;;;;0.98;0.90;;;;;;;10.63;53.19;99561.78;1743888;82;21381;-66
2022/04/17 11:29:43;;;;;;;1.45;1.00;;;;;;;10.62;51.88;99573.33;1732804;82;20890;-65
2022/04/17 11:32:30;;;;;;;2.37;1.60;;;;;;;10.32;51.32;99574.95;1736706;81;21568;-62
2022/04/17 11:35:02;;;;;;;2.08;1.00;;;;;;;9.79;51.31;99567.45;1712425;81;21001;-62
2022/04/17 11:37:31;;;;;;;2.08;1.40;;;;;;;9.12;53.74;99583.74;1721653;81;21008;-63
2022/04/17 11:40:10;;;;;;;1.80;1.00;;;;;;;8.55;53.58;99597.45;1716600;81;20890;-65
2022/04/17 11:42:45;;;;;;;2.10;1.35;;;;;;;7.91;53.85;99591.66;1719688;82;20954;-63
2022/04/17 11:45:14;;;;;;;0.93;0.80;;;;;;;7.49;56.10;99589.84;1742293;81;20937;-62
2022/04/17 11:47:44;;;;;;;1.30;0.78;;;;;;;7.45;55.09;99596.18;1716297;81;21053;-63
2022/04/17 11:50:14;;;;;;;2.02;0.68;;;;;;;7.44;54.51;99595.92;1727698;81;21441;-63
2022/04/17 11:52:41;;;;;;;1.47;0.70;;;;;;;7.47;54.81;99595.33;1718887;82;20843;-63
2022/04/17 11:55:08;;;;;;;1.12;0.78;;;;;;;7.51;54.41;99596.37;1727069;82;21000;-63
2022/04/17 11:57:37;;;;;;;1.07;0.80;;;;;;;7.56;55.36;99603.10;1723698;82;20862;-63
2022/04/17 12:00:06;;;;;;;1.12;1.00;;;;;;;7.72;56.04;99599.60;1728242;82;21490;-63
2022/04/17 12:02:33;;;;;;;1.62;1.12;;;;;;;7.91;56.41;99602.59;1714573;80;21828;-63
2022/04/17 12:05:08;;;;;;;1.32;1.10;;;;;;;8.34;57.93;99595.63;1702786;83;20886;-64
2022/04/17 12:07:35;;;;;;;1.87;0.90;;;;;;;8.97;57.85;99593.62;1717881;82;20981;-64
2022/04/17 12:10:11;;;;;;;2.05;1.07;;;;;;;9.62;55.72;99579.64;1693688;83;20950;-63